Time;durP1;ratioP1;P1;durP2;ratioP2;P2;SDS_P1;SDS_P2;PMS_P1;PMS_P2;Temp;Humidity;BMP_temperature;BMP_pressure;BME280_temperature;BME280_humidity;BME280_pressure;Samples;Min_cycle;Max_cycle;Signal;HPM_P1;HPM_P2
2023/07/20 00:01:34;;;;;;;5.07;2.03;;;;;;;25.30;35.32;97304.19;5008109;28;20282;-71
2023/07/20 00:04:00;;;;;;;2.67;2.37;;;;;;;25.29;35.50;97313.28;5008165;28;20272;-71
2023/07/20 00:06:27;;;;;;;5.97;2.30;;;;;;;25.20;35.46;97314.75;5008696;28;20283;-72
2023/07/20 00:08:53;;;;;;;2.30;2.03;;;;;;;25.12;35.06;97309.78;5007583;28;20182;-72
2023/07/20 00:11:19;;;;;;;2.20;1.73;;;;;;;25.16;35.45;97302.88;5008928;28;20804;-72
2023/07/20 00:13:44;;;;;;;2.77;2.10;;;;;;;25.10;35.64;97302.00;5011288;28;20545;-72
2023/07/20 00:16:10;;;;;;;2.60;1.93;;;;;;;25.07;35.54;97305.16;5007424;28;20327;-71
2023/07/20 00:18:35;;;;;;;2.40;2.20;;;;;;;25.06;35.50;97305.41;5008757;28;20187;-71
2023/07/20 00:21:01;;;;;;;3.57;2.33;;;;;;;25.06;35.24;97308.09;5010398;28;20596;-71
2023/07/20 00:23:27;;;;;;;3.70;2.13;;;;;;;25.05;35.62;97306.47;5010078;28;20199;-75
2023/07/20 00:25:52;;;;;;;3.10;2.20;;;;;;;25.02;35.29;97306.94;5007605;28;20506;-74
2023/07/20 00:28:18;;;;;;;3.83;2.00;;;;;;;24.98;35.51;97298.59;5008017;28;20185;-70
2023/07/20 00:30:43;;;;;;;4.60;2.33;;;;;;;24.97;35.22;97299.63;5008225;28;20237;-72
2023/07/20 00:33:11;;;;;;;2.90;2.07;;;;;;;24.97;35.52;97297.75;5007824;28;20203;-70
2023/07/20 00:35:37;;;;;;;5.97;2.23;;;;;;;24.95;35.80;97296.38;5007039;28;20287;-73
2023/07/20 00:38:03;;;;;;;2.70;2.50;;;;;;;24.95;35.21;97299.84;5009408;28;20951;-72
2023/07/20 00:40:29;;;;;;;3.73;2.50;;;;;;;24.98;35.42;97299.38;5009242;28;20481;-71
2023/07/20 00:42:54;;;;;;;3.73;1.97;;;;;;;24.97;35.60;97302.31;5010751;28;20727;-71
2023/07/20 00:45:20;;;;;;;3.00;2.00;;;;;;;24.91;35.72;97305.94;5014474;28;20216;-72
2023/07/20 00:47:46;;;;;;;2.33;1.90;;;;;;;24.81;36.10;97301.25;5007029;28;20191;-73
2023/07/20 00:50:12;;;;;;;1.93;1.83;;;;;;;24.78;36.18;97312.44;5014324;28;20176;-71
2023/07/20 00:52:39;;;;;;;2.70;2.00;;;;;;;24.66;36.20;97309.78;5011159;28;20846;-73
2023/07/20 00:55:06;;;;;;;6.33;2.23;;;;;;;24.63;36.53;97311.09;5010493;28;20443;-73
2023/07/20 00:57:31;;;;;;;2.10;1.90;;;;;;;24.60;36.61;97311.56;5009836;28;20455;-71
2023/07/20 00:59:57;;;;;;;3.13;2.20;;;;;;;24.60;35.93;97306.19;5012802;28;20462;-71
2023/07/20 01:02:22;;;;;;;3.97;2.40;;;;;;;24.54;36.32;97318.69;5009434;28;20203;-70
2023/07/20 01:04:48;;;;;;;7.67;2.13;;;;;;;24.45;36.45;97319.31;5011933;28;20577;-71
2023/07/20 01:07:46;;;;;;;5.57;1.90;;;;;;;24.35;36.45;97318.06;5014362;28;20201;-70
2023/07/20 01:10:37;;;;;;;5.40;2.53;;;;;;;24.31;36.71;97311.59;5008272;28;20195;-70
2023/07/20 01:13:03;;;;;;;3.73;2.00;;;;;;;24.30;36.63;97315.31;5010871;28;20418;-70
2023/07/20 01:15:28;;;;;;;2.13;1.90;;;;;;;24.32;36.25;97320.41;5009255;28;20435;-73
2023/07/20 01:17:54;;;;;;;5.37;2.30;;;;;;;24.28;36.58;97316.56;5012939;28;20427;-69
2023/07/20 01:20:22;;;;;;;3.70;2.10;;;;;;;24.27;36.44;97313.09;5012976;28;20192;-69
2023/07/20 01:23:18;;;;;;;2.60;2.00;;;;;;;24.31;36.45;97322.28;5003768;28;20192;-71
2023/07/20 01:26:11;;;;;;;10.03;2.40;;;;;;;24.31;36.29;97318.78;5011513;28;21064;-73
2023/07/20 01:29:04;;;;;;;5.57;2.30;;;;;;;24.25;36.82;97319.75;5011797;28;20447;-72
2023/07/20 01:31:34;;;;;;;2.47;2.27;;;;;;;24.17;37.48;97321.75;5008483;28;20459;-72
2023/07/20 01:34:04;;;;;;;3.90;2.17;;;;;;;24.11;37.90;97324.53;5007278;28;20482;-71
2023/07/20 01:36:34;;;;;;;4.73;2.40;;;;;;;24.05;38.03;97320.97;5010125;28;20418;-73
2023/07/20 01:39:00;;;;;;;4.30;2.20;;;;;;;24.00;37.79;97318.19;5013069;28;20411;-71
2023/07/20 01:41:26;;;;;;;2.70;2.17;;;;;;;23.97;37.95;97318.66;5008251;28;20427;-72
2023/07/20 01:43:51;;;;;;;4.03;2.10;;;;;;;23.96;38.37;97322.38;5010241;28;20884;-71
2023/07/20 01:46:16;;;;;;;4.17;2.27;;;;;;;23.96;38.84;97319.72;5010841;28;20584;-71
2023/07/20 01:48:42;;;;;;;2.13;1.90;;;;;;;23.87;38.79;97321.91;5011975;28;20183;-73
2023/07/20 01:51:08;;;;;;;2.50;2.30;;;;;;;23.78;39.31;97311.56;5013833;28;20894;-71
2023/07/20 01:53:33;;;;;;;2.17;1.97;;;;;;;23.72;39.44;97322.38;5013679;28;21996;-71
2023/07/20 01:55:59;;;;;;;3.33;2.40;;;;;;;23.67;39.32;97308.88;5012952;28;20196;-73
2023/07/20 01:58:24;;;;;;;2.60;2.17;;;;;;;23.61;39.64;97316.00;5012948;28;20263;-73
2023/07/20 02:00:50;;;;;;;2.60;2.40;;;;;;;23.58;39.68;97314.59;5012900;28;20187;-73
2023/07/20 02:03:15;;;;;;;2.70;2.50;;;;;;;23.53;40.00;97311.00;5009969;28;20279;-73
2023/07/20 02:05:44;;;;;;;3.77;2.20;;;;;;;23.46;40.13;97309.25;5012305;28;20295;-72
2023/07/20 02:08:09;;;;;;;2.67;2.20;;;;;;;23.38;40.30;97314.97;5013256;28;20180;-72
2023/07/20 02:10:35;;;;;;;2.77;2.00;;;;;;;23.37;40.69;97315.19;5014709;28;20512;-71
2023/07/20 02:13:00;;;;;;;3.63;2.50;;;;;;;23.38;40.49;97317.63;5013095;28;20211;-71
2023/07/20 02:15:27;;;;;;;3.17;2.20;;;;;;;23.35;40.64;97312.75;5010100;28;20630;-71
2023/07/20 02:17:52;;;;;;;3.00;2.30;;;;;;;23.34;40.57;97321.00;5010544;28;20184;-73
2023/07/20 02:20:19;;;;;;;4.77;2.47;;;;;;;23.34;40.44;97311.09;5014233;28;20427;-72
2023/07/20 02:22:45;;;;;;;4.83;2.53;;;;;;;23.23;40.83;97317.25;5011153;28;20662;-70
2023/07/20 02:25:10;;;;;;;3.30;2.33;;;;;;;23.17;41.04;97306.44;5013670;28;20451;-72
2023/07/20 02:27:37;;;;;;;6.83;2.30;;;;;;;23.12;41.41;97314.31;5010514;28;20191;-71
2023/07/20 02:30:03;;;;;;;2.77;2.53;;;;;;;23.06;41.87;97309.88;5013632;28;20188;-72
2023/07/20 02:32:29;;;;;;;4.93;2.27;;;;;;;23.01;42.01;97323.13;5009441;28;20466;-72
2023/07/20 02:34:54;;;;;;;2.60;2.30;;;;;;;22.91;41.60;97323.69;5009659;28;20439;-71
2023/07/20 02:37:20;;;;;;;2.70;2.10;;;;;;;22.87;41.62;97319.88;4993994;28;20431;-71
2023/07/20 02:39:45;;;;;;;7.63;2.97;;;;;;;22.84;41.75;97318.44;4981087;28;20178;-71
2023/07/20 02:42:11;;;;;;;4.40;2.50;;;;;;;22.83;41.76;97322.16;5010038;28;20176;-71
2023/07/20 02:44:36;;;;;;;3.70;2.30;;;;;;;22.81;41.82;97318.91;5007258;28;20205;-71
2023/07/20 02:47:02;;;;;;;6.40;2.23;;;;;;;22.77;41.71;97317.75;5010277;28;20291;-70
2023/07/20 02:49:27;;;;;;;2.60;2.40;;;;;;;22.72;41.74;97322.94;5008954;28;21974;-72
2023/07/20 02:51:54;;;;;;;4.57;2.33;;;;;;;22.64;41.97;97329.41;5007608;28;20185;-73
2023/07/20 02:54:19;;;;;;;3.97;2.43;;;;;;;22.63;42.39;97333.13;5011983;28;20245;-73
2023/07/20 02:56:44;;;;;;;2.50;2.10;;;;;;;22.58;42.86;97333.00;5011761;28;20831;-71
2023/07/20 02:59:10;;;;;;;3.20;2.40;;;;;;;22.58;42.84;97341.03;5010325;28;20291;-71
2023/07/20 03:01:35;;;;;;;6.63;2.67;;;;;;;22.57;42.93;97339.38;5008873;28;20260;-72
2023/07/20 03:04:02;;;;;;;6.60;2.10;;;;;;;22.59;42.88;97339.16;5005377;28;20180;-70
2023/07/20 03:06:27;;;;;;;3.50;2.20;;;;;;;22.57;43.03;97335.88;5012580;28;20736;-70
2023/07/20 03:08:53;;;;;;;4.60;2.37;;;;;;;22.54;43.16;97335.31;4997209;28;20542;-70
2023/07/20 03:11:20;;;;;;;5.20;2.83;;;;;;;22.52;43.35;97332.06;5006998;28;20202;-69
2023/07/20 03:13:46;;;;;;;2.50;2.30;;;;;;;22.50;43.45;97330.63;5004990;28;20184;-70
2023/07/20 03:16:15;;;;;;;2.90;2.60;;;;;;;22.49;43.26;97340.50;5008488;28;20983;-70
2023/07/20 03:18:41;;;;;;;4.00;2.20;;;;;;;22.50;43.30;97336.81;5012035;28;20431;-71
2023/07/20 03:21:08;;;;;;;2.90;2.57;;;;;;;22.50;43.36;97334.13;5008968;28;21106;-69
2023/07/20 03:23:33;;;;;;;3.27;2.50;;;;;;;22.43;43.58;97330.72;5007858;28;20486;-72
2023/07/20 03:25:59;;;;;;;2.87;2.57;;;;;;;22.45;43.71;97342.00;5007491;28;20463;-72
2023/07/20 03:28:24;;;;;;;3.17;2.47;;;;;;;22.42;43.59;97337.13;5007781;28;20192;-71
2023/07/20 03:30:55;;;;;;;4.50;2.53;;;;;;;22.29;43.86;97339.94;5008360;28;20242;-71
2023/07/20 03:33:22;;;;;;;3.07;2.20;;;;;;;22.31;43.83;97337.84;5008930;28;20192;-71
2023/07/20 03:35:47;;;;;;;4.90;2.60;;;;;;;22.33;44.07;97346.44;5008682;28;20441;-73
2023/07/20 03:38:13;;;;;;;4.13;2.47;;;;;;;22.31;43.95;97341.34;5011239;28;20794;-73
2023/07/20 03:40:38;;;;;;;2.50;2.30;;;;;;;22.28;44.06;97339.09;5010164;28;20271;-73
2023/07/20 03:43:03;;;;;;;3.10;2.57;;;;;;;22.25;43.78;97339.56;5011579;28;20218;-73
2023/07/20 03:45:29;;;;;;;3.53;2.60;;;;;;;22.21;44.04;97341.06;5013342;28;20308;-72
2023/07/20 03:47:54;;;;;;;3.00;2.53;;;;;;;22.22;43.98;97343.50;5008980;28;20176;-70
2023/07/20 03:50:20;;;;;;;4.47;2.87;;;;;;;22.24;44.38;97335.28;5008306;28;20216;-74
2023/07/20 03:52:45;;;;;;;8.33;2.70;;;;;;;22.21;44.33;97339.19;5008987;28;20176;-71
2023/07/20 03:55:10;;;;;;;2.80;2.20;;;;;;;22.20;44.52;97339.44;5008137;28;20556;-71
2023/07/20 03:57:36;;;;;;;2.60;2.40;;;;;;;22.21;44.00;97336.50;5006943;28;20192;-69
2023/07/20 04:00:04;;;;;;;4.90;2.23;;;;;;;22.15;43.76;97348.09;5008035;28;20184;-70
2023/07/20 04:02:30;;;;;;;3.93;2.60;;;;;;;22.17;43.62;97350.53;5007544;28;20321;-71
2023/07/20 04:04:55;;;;;;;3.97;2.50;;;;;;;22.17;43.52;97346.03;5003960;28;20892;-71
2023/07/20 04:07:21;;;;;;;3.33;2.23;;;;;;;22.28;43.58;97348.97;5008436;28;20315;-73
2023/07/20 04:09:46;;;;;;;3.60;2.83;;;;;;;22.37;43.66;97352.97;5011749;28;20181;-71
2023/07/20 04:12:11;;;;;;;6.93;2.20;;;;;;;22.42;43.57;97352.31;5007991;28;20212;-71
2023/07/20 04:14:37;;;;;;;3.23;2.40;;;;;;;22.50;43.26;97352.81;5011395;28;20294;-72
2023/07/20 04:17:03;;;;;;;4.17;2.60;;;;;;;22.50;43.09;97360.84;5008483;28;20238;-71
2023/07/20 04:19:29;;;;;;;4.60;2.63;;;;;;;22.54;43.19;97363.88;5012763;28;20411;-70
2023/07/20 04:21:54;;;;;;;5.23;2.93;;;;;;;22.61;43.20;97361.94;5006702;28;20514;-70
2023/07/20 04:24:20;;;;;;;6.50;2.60;;;;;;;22.65;43.54;97362.31;5006429;28;20661;-70
2023/07/20 04:26:45;;;;;;;4.43;2.20;;;;;;;22.64;43.66;97363.34;5009942;28;20246;-70
2023/07/20 04:29:10;;;;;;;2.57;2.20;;;;;;;22.68;43.74;97357.31;5008399;28;20226;-69
2023/07/20 04:31:36;;;;;;;3.80;2.23;;;;;;;22.74;43.41;97358.25;5007531;28;20195;-70
2023/07/20 04:34:01;;;;;;;2.50;2.30;;;;;;;22.79;42.78;97353.06;5007662;28;20185;-71
2023/07/20 04:36:27;;;;;;;3.23;2.33;;;;;;;22.85;42.31;97356.69;5007975;28;20207;-74
2023/07/20 04:38:53;;;;;;;4.17;2.60;;;;;;;22.91;42.44;97349.59;5009112;28;20183;-71
2023/07/20 04:41:18;;;;;;;4.50;2.40;;;;;;;22.99;42.57;97354.63;5007291;28;20279;-72
2023/07/20 04:43:44;;;;;;;5.80;2.20;;;;;;;23.07;42.44;97358.81;5006363;28;20192;-71
2023/07/20 04:46:12;;;;;;;5.13;2.60;;;;;;;23.10;42.59;97356.50;5010846;28;20764;-71
2023/07/20 04:48:38;;;;;;;3.43;2.30;;;;;;;23.19;42.79;97350.84;5007808;28;20234;-70
2023/07/20 04:51:03;;;;;;;3.00;2.33;;;;;;;23.27;42.38;97350.53;5003291;28;20431;-71
2023/07/20 04:53:29;;;;;;;2.70;2.20;;;;;;;23.31;42.50;97354.38;5009652;28;20207;-72
2023/07/20 04:55:54;;;;;;;3.00;2.57;;;;;;;23.36;42.83;97353.69;5006341;28;20266;-71
2023/07/20 04:58:21;;;;;;;4.27;2.40;;;;;;;23.39;42.69;97358.53;5007791;28;20685;-70
2023/07/20 05:00:48;;;;;;;3.70;2.23;;;;;;;23.42;42.44;97360.75;5007130;28;20231;-72
2023/07/20 05:03:13;;;;;;;2.53;2.33;;;;;;;23.46;42.51;97357.38;5007428;28;20966;-71
2023/07/20 05:05:39;;;;;;;2.60;2.40;;;;;;;23.49;42.58;97361.47;5006532;28;20483;-70
2023/07/20 05:08:04;;;;;;;6.17;2.30;;;;;;;23.52;42.60;97365.53;5007124;28;20191;-70
2023/07/20 05:10:30;;;;;;;2.43;2.17;;;;;;;23.54;41.94;97363.44;5007880;28;20179;-72
2023/07/20 05:12:55;;;;;;;4.80;2.30;;;;;;;23.56;41.51;97358.69;5009912;28;20572;-71
2023/07/20 05:15:20;;;;;;;2.50;2.30;;;;;;;23.58;41.20;97359.25;5011232;28;20386;-72
2023/07/20 05:17:48;;;;;;;2.80;2.03;;;;;;;23.62;41.38;97355.91;5008638;28;20186;-70
2023/07/20 05:20:14;;;;;;;3.10;2.47;;;;;;;23.65;41.34;97354.59;5007801;28;20180;-69
2023/07/20 05:22:39;;;;;;;3.87;2.30;;;;;;;23.69;41.57;97361.09;5005726;28;20935;-71
2023/07/20 05:25:08;;;;;;;4.93;2.20;;;;;;;23.72;41.26;97352.63;5007038;28;20315;-71
2023/07/20 05:27:35;;;;;;;2.73;2.30;;;;;;;23.80;41.34;97356.00;5007736;28;20181;-70
2023/07/20 05:30:01;;;;;;;3.63;2.00;;;;;;;23.82;41.01;97353.91;5007419;28;20428;-72
2023/07/20 05:32:26;;;;;;;2.60;1.90;;;;;;;23.82;40.82;97356.59;5007671;28;20469;-73
2023/07/20 05:34:55;;;;;;;7.20;2.30;;;;;;;23.84;40.63;97357.16;5009576;28;20713;-71
2023/07/20 05:37:20;;;;;;;4.77;2.60;;;;;;;23.89;40.66;97359.94;5010122;28;20267;-71
2023/07/20 05:39:46;;;;;;;19.77;2.10;;;;;;;23.89;40.49;97354.59;5010945;28;20499;-70
2023/07/20 05:42:12;;;;;;;6.67;2.30;;;;;;;24.00;40.77;97350.31;5010477;28;20601;-70
2023/07/20 05:44:37;;;;;;;4.60;2.10;;;;;;;24.12;40.25;97364.47;5010962;28;20443;-72
2023/07/20 05:47:03;;;;;;;4.27;2.20;;;;;;;24.15;39.62;97355.97;5010309;28;20218;-71
2023/07/20 05:49:29;;;;;;;4.30;2.27;;;;;;;24.16;39.90;97354.91;5011966;28;20215;-71
2023/07/20 05:51:55;;;;;;;7.27;2.40;;;;;;;24.12;39.90;97358.31;5009574;28;20271;-72
2023/07/20 05:54:21;;;;;;;4.20;2.17;;;;;;;24.13;39.32;97355.38;5012965;28;20535;-71
2023/07/20 05:56:47;;;;;;;6.57;2.47;;;;;;;24.14;39.42;97350.84;5010144;28;20466;-72
2023/07/20 05:59:13;;;;;;;4.93;2.20;;;;;;;24.15;39.49;97363.19;5010947;28;20208;-70
2023/07/20 06:01:38;;;;;;;5.10;2.70;;;;;;;24.14;39.94;97366.91;5010581;28;20231;-70
2023/07/20 06:04:03;;;;;;;5.10;2.30;;;;;;;24.06;39.80;97366.25;5011283;28;20259;-70
2023/07/20 06:06:29;;;;;;;4.03;2.20;;;;;;;24.03;39.80;97372.06;5009838;28;20790;-69
2023/07/20 06:08:54;;;;;;;3.30;2.40;;;;;;;24.00;39.86;97367.16;5011166;28;20180;-71
2023/07/20 06:11:20;;;;;;;3.20;2.37;;;;;;;23.91;39.79;97368.56;5007092;28;20318;-71
2023/07/20 06:13:45;;;;;;;8.63;2.30;;;;;;;23.95;40.02;97369.69;5001262;28;20189;-70
2023/07/20 06:16:11;;;;;;;4.33;2.30;;;;;;;24.01;40.18;97368.78;5010187;28;20527;-70
2023/07/20 06:18:36;;;;;;;4.20;2.40;;;;;;;24.04;39.91;97373.69;5008987;28;20578;-71
2023/07/20 06:21:02;;;;;;;3.83;1.80;;;;;;;24.07;39.83;97365.16;5009715;28;20180;-71
2023/07/20 06:23:27;;;;;;;3.03;2.67;;;;;;;24.15;39.98;97369.34;5010493;28;20539;-70
2023/07/20 06:25:53;;;;;;;3.87;2.20;;;;;;;24.15;40.08;97376.56;5009043;28;20298;-72
2023/07/20 06:28:18;;;;;;;5.77;2.40;;;;;;;24.23;39.80;97365.50;5011899;28;20188;-72
2023/07/20 06:30:44;;;;;;;7.03;2.40;;;;;;;24.22;40.11;97374.56;5007786;28;20262;-73
2023/07/20 06:33:09;;;;;;;4.27;2.40;;;;;;;24.23;40.21;97376.19;5007509;28;20275;-71
2023/07/20 06:35:35;;;;;;;3.50;2.00;;;;;;;24.32;40.14;97372.09;5010718;28;20209;-72
2023/07/20 06:38:03;;;;;;;3.03;2.10;;;;;;;24.39;40.22;97364.75;5010003;28;20199;-73
2023/07/20 06:40:30;;;;;;;3.10;2.00;;;;;;;24.48;40.04;97369.72;5006514;28;20424;-73
2023/07/20 06:42:55;;;;;;;3.60;2.07;;;;;;;24.53;40.13;97364.47;5011022;28;20534;-72
2023/07/20 06:45:21;;;;;;;3.77;2.37;;;;;;;24.59;39.55;97365.38;5009532;28;20539;-73
2023/07/20 06:47:46;;;;;;;4.73;2.20;;;;;;;24.68;39.54;97362.09;5009111;28;20215;-72
2023/07/20 06:50:12;;;;;;;2.97;2.50;;;;;;;24.78;39.30;97372.19;5014739;28;20211;-72
2023/07/20 06:52:37;;;;;;;2.67;2.10;;;;;;;24.83;39.31;97366.09;5011622;28;20192;-72
2023/07/20 06:55:03;;;;;;;2.93;1.70;;;;;;;24.89;39.57;97367.03;5009470;28;20200;-71
2023/07/20 06:57:29;;;;;;;3.33;2.30;;;;;;;24.90;38.92;97369.47;5009465;28;20188;-72
2023/07/20 06:59:54;;;;;;;10.50;2.37;;;;;;;24.96;38.99;97371.16;5009477;28;20839;-72
2023/07/20 07:02:20;;;;;;;3.90;2.00;;;;;;;25.05;38.98;97371.59;5009298;28;20283;-71
2023/07/20 07:04:46;;;;;;;5.33;2.27;;;;;;;25.14;38.38;97367.47;5009164;28;20204;-71
2023/07/20 07:07:14;;;;;;;2.30;2.10;;;;;;;25.23;38.22;97362.50;5010380;28;20211;-71
2023/07/20 07:09:40;;;;;;;5.87;1.83;;;;;;;25.39;38.06;97360.88;5014302;28;20419;-71
2023/07/20 07:12:05;;;;;;;4.37;2.20;;;;;;;25.45;38.30;97353.78;5009679;28;20967;-72
2023/07/20 07:14:31;;;;;;;2.90;2.10;;;;;;;25.54;38.20;97357.66;5009383;28;20188;-72
2023/07/20 07:16:56;;;;;;;3.33;2.07;;;;;;;25.71;37.49;97359.50;5009295;28;20243;-71
2023/07/20 07:19:22;;;;;;;6.13;2.10;;;;;;;25.83;37.33;97349.50;5013452;28;20188;-73
2023/07/20 07:21:47;;;;;;;6.20;2.30;;;;;;;25.72;37.26;97359.25;5012013;28;20284;-74
2023/07/20 07:24:13;;;;;;;4.90;2.47;;;;;;;25.85;37.18;97355.41;5009875;28;20185;-71
2023/07/20 07:26:39;;;;;;;5.57;2.17;;;;;;;26.01;36.68;97350.25;5009419;28;20554;-71
2023/07/20 07:29:04;;;;;;;3.70;2.10;;;;;;;26.14;36.69;97349.13;5012476;28;20204;-70
2023/07/20 07:31:30;;;;;;;6.27;2.50;;;;;;;26.08;36.42;97340.16;5009426;28;20781;-71
2023/07/20 07:33:56;;;;;;;5.07;2.00;;;;;;;26.21;36.40;97342.47;5009107;28;20220;-70
2023/07/20 07:36:21;;;;;;;3.00;2.43;;;;;;;26.16;35.84;97342.41;5009594;28;20204;-70
2023/07/20 07:38:47;;;;;;;5.83;2.20;;;;;;;26.39;36.06;97339.72;5010627;28;20434;-71
2023/07/20 07:41:13;;;;;;;9.20;2.03;;;;;;;26.60;36.27;97346.94;5010509;28;20621;-71
2023/07/20 07:43:39;;;;;;;5.33;1.80;;;;;;;26.78;35.68;97336.88;5009726;28;20192;-73
2023/07/20 07:46:04;;;;;;;3.47;2.30;;;;;;;26.92;35.16;97340.03;5007489;28;20478;-72
2023/07/20 07:48:30;;;;;;;3.50;1.87;;;;;;;26.95;34.89;97344.91;5009187;28;20599;-71
2023/07/20 07:50:55;;;;;;;9.07;2.53;;;;;;;26.80;34.97;97332.94;5012065;28;20292;-73
2023/07/20 07:53:21;;;;;;;5.37;2.27;;;;;;;26.83;34.73;97340.50;5009024;28;20275;-71
2023/07/20 07:55:49;;;;;;;4.43;2.60;;;;;;;26.76;34.33;97334.47;5009025;28;20208;-71
2023/07/20 07:58:15;;;;;;;4.43;2.47;;;;;;;26.63;34.57;97340.25;5012405;28;20220;-71
2023/07/20 08:00:40;;;;;;;5.63;2.23;;;;;;;26.56;34.71;97339.63;5003499;28;20807;-75
2023/07/20 08:03:06;;;;;;;2.70;2.30;;;;;;;26.45;35.02;97339.53;5007815;28;20184;-73
2023/07/20 08:05:31;;;;;;;2.60;2.23;;;;;;;26.64;34.73;97336.50;5008550;28;20275;-74
2023/07/20 08:07:57;;;;;;;4.90;2.30;;;;;;;26.55;35.12;97344.19;5004159;28;20266;-72
2023/07/20 08:10:23;;;;;;;4.23;1.70;;;;;;;26.36;35.10;97343.72;5007952;28;20325;-72
2023/07/20 08:12:48;;;;;;;3.50;2.60;;;;;;;26.55;34.90;97336.13;5008090;28;20657;-72
2023/07/20 08:15:14;;;;;;;6.73;2.43;;;;;;;26.79;34.75;97339.38;5005792;28;20208;-71
2023/07/20 08:17:41;;;;;;;2.10;1.87;;;;;;;26.92;34.57;97327.38;5009207;28;20329;-71
2023/07/20 08:20:09;;;;;;;2.40;1.70;;;;;;;27.20;34.46;97330.84;5005126;28;20176;-71
2023/07/20 08:22:35;;;;;;;7.03;2.40;;;;;;;27.42;34.35;97329.91;5004094;28;20431;-70
2023/07/20 08:25:09;;;;;;;3.33;2.27;;;;;;;27.64;33.43;97329.03;5008819;28;20976;-71
2023/07/20 08:27:36;;;;;;;4.07;2.13;;;;;;;27.74;33.09;97329.06;5005969;28;20569;-72
2023/07/20 08:30:02;;;;;;;3.83;2.00;;;;;;;27.98;32.32;97332.16;5006762;28;20423;-70
2023/07/20 08:32:27;;;;;;;11.03;2.13;;;;;;;28.04;32.07;97324.91;5008500;28;20554;-71
2023/07/20 08:34:53;;;;;;;4.23;1.90;;;;;;;28.00;31.19;97334.59;5010033;28;20526;-73
2023/07/20 08:37:19;;;;;;;2.90;2.13;;;;;;;28.15;31.30;97333.88;4992872;28;20175;-71
2023/07/20 08:39:44;;;;;;;4.33;1.90;;;;;;;28.01;31.13;97331.63;5008372;28;20532;-70
2023/07/20 08:42:10;;;;;;;2.70;2.33;;;;;;;27.93;31.52;97340.22;5010557;28;20202;-71
2023/07/20 08:44:38;;;;;;;4.20;1.77;;;;;;;27.81;31.92;97345.00;5007809;28;20215;-72
2023/07/20 08:47:04;;;;;;;7.03;2.23;;;;;;;27.68;32.21;97340.88;5008952;28;20197;-73
2023/07/20 08:49:31;;;;;;;4.63;1.90;;;;;;;27.55;32.03;97344.84;5005316;28;20449;-72
2023/07/20 08:51:57;;;;;;;2.10;1.90;;;;;;;27.43;32.29;97336.91;5007732;28;20180;-71
2023/07/20 08:54:24;;;;;;;3.63;2.13;;;;;;;27.59;32.38;97340.56;5007927;28;20432;-71
2023/07/20 08:56:50;;;;;;;3.40;2.03;;;;;;;27.82;32.43;97333.97;5006857;28;20435;-70
2023/07/20 08:59:17;;;;;;;4.73;2.30;;;;;;;27.94;31.70;97331.06;5007515;28;20513;-71
2023/07/20 09:01:43;;;;;;;3.20;2.00;;;;;;;28.19;31.85;97333.06;5008233;28;20477;-72
2023/07/20 09:04:09;;;;;;;3.03;2.03;;;;;;;28.20;31.12;97329.31;5007515;28;20515;-73
2023/07/20 09:06:35;;;;;;;3.00;1.90;;;;;;;28.28;31.70;97336.06;5007890;28;20562;-69
2023/07/20 09:09:00;;;;;;;3.87;2.10;;;;;;;28.27;30.90;97329.06;5008950;28;20188;-70
2023/07/20 09:11:26;;;;;;;4.17;2.30;;;;;;;28.35;30.73;97333.13;5013904;28;20188;-74
2023/07/20 09:14:07;;;;;;;2.00;1.70;;;;;;;28.60;30.86;97324.31;5010874;28;20598;-70
2023/07/20 09:16:48;;;;;;;3.23;1.90;;;;;;;28.82;30.11;97320.59;5012693;28;20196;-70
2023/07/20 09:19:15;;;;;;;2.80;2.10;;;;;;;28.85;29.62;97321.94;5010362;28;20415;-71
2023/07/20 09:21:40;;;;;;;3.27;1.60;;;;;;;28.94;28.36;97325.72;5011579;28;20423;-71
2023/07/20 09:24:06;;;;;;;1.67;1.57;;;;;;;28.96;28.05;97319.00;5012080;28;20466;-71
2023/07/20 09:26:40;;;;;;;3.10;1.80;;;;;;;28.85;28.94;97322.75;5014689;28;20211;-71
2023/07/20 09:29:07;;;;;;;2.40;1.70;;;;;;;28.91;29.45;97323.59;5014751;28;20186;-70
2023/07/20 09:31:32;;;;;;;9.23;1.70;;;;;;;28.69;29.26;97323.78;5011315;28;20445;-71
2023/07/20 09:33:58;;;;;;;8.43;2.30;;;;;;;28.65;29.84;97324.31;5010870;28;20498;-70
2023/07/20 09:36:24;;;;;;;5.13;1.90;;;;;;;28.50;29.71;97326.97;5010808;28;20705;-73
2023/07/20 09:38:49;;;;;;;3.40;1.90;;;;;;;28.17;30.10;97326.34;4992538;28;20560;-71
2023/07/20 09:41:15;;;;;;;4.27;1.80;;;;;;;27.79;29.98;97328.28;5012755;28;20427;-71
2023/07/20 09:43:41;;;;;;;4.70;1.90;;;;;;;27.68;30.72;97328.25;5011381;28;20579;-72
2023/07/20 09:46:07;;;;;;;6.30;2.07;;;;;;;27.58;30.46;97322.81;5010011;28;20224;-71
2023/07/20 09:48:32;;;;;;;2.30;1.87;;;;;;;27.78;30.78;97324.81;5012646;28;20503;-72
2023/07/20 09:50:58;;;;;;;2.20;1.57;;;;;;;27.87;30.11;97319.72;5010905;28;20192;-71
2023/07/20 09:53:25;;;;;;;3.73;1.73;;;;;;;28.11;29.80;97322.00;5014615;28;20263;-72
2023/07/20 09:55:52;;;;;;;4.87;1.83;;;;;;;28.41;29.09;97317.78;5010826;28;20204;-72
2023/07/20 09:58:17;;;;;;;4.63;1.70;;;;;;;28.66;29.16;97315.16;5014167;28;20423;-71
2023/07/20 10:00:50;;;;;;;6.80;1.90;;;;;;;28.87;29.21;97312.50;5011438;28;20784;-72
2023/07/20 10:03:20;;;;;;;2.70;1.60;;;;;;;29.10;28.78;97310.38;5008463;28;20223;-71
2023/07/20 10:05:54;;;;;;;2.53;1.57;;;;;;;29.01;28.30;97317.34;5010786;28;20462;-72
2023/07/20 10:08:24;;;;;;;3.50;1.70;;;;;;;28.92;28.90;97307.13;5010821;28;20434;-71
2023/07/20 10:10:49;;;;;;;2.53;1.77;;;;;;;28.78;29.40;97316.81;5017253;28;20589;-71
2023/07/20 10:13:20;;;;;;;2.50;1.50;;;;;;;28.65;28.49;97313.53;5009407;28;20427;-73
2023/07/20 10:16:03;;;;;;;1.83;1.67;;;;;;;28.46;29.20;97309.72;5008724;28;20207;-73
2023/07/20 10:19:09;;;;;;;3.70;1.80;;;;;;;28.35;28.91;97304.28;5009996;28;20463;-72
2023/07/20 10:21:40;;;;;;;2.27;1.73;;;;;;;28.62;28.82;97289.78;5000638;28;20525;-71
2023/07/20 10:24:07;;;;;;;3.10;2.00;;;;;;;29.01;28.45;97293.09;5012527;28;20519;-74
2023/07/20 10:26:33;;;;;;;3.13;1.50;;;;;;;29.33;27.67;97290.09;5011531;28;20493;-74
2023/07/20 10:28:58;;;;;;;1.93;1.60;;;;;;;29.63;26.98;97287.63;5010191;28;20427;-74
2023/07/20 10:31:25;;;;;;;2.50;1.63;;;;;;;29.86;27.18;97276.22;5009143;28;20196;-72
2023/07/20 10:33:52;;;;;;;3.07;1.43;;;;;;;30.16;26.84;97271.78;4989441;28;20177;-72
2023/07/20 10:36:24;;;;;;;4.20;1.53;;;;;;;30.43;25.41;97270.56;5010890;28;20452;-72
2023/07/20 10:38:54;;;;;;;2.70;1.73;;;;;;;30.55;25.67;97269.44;5010150;28;20889;-72
2023/07/20 10:41:20;;;;;;;3.20;1.40;;;;;;;30.85;25.74;97267.59;5010511;28;20431;-73
2023/07/20 10:43:46;;;;;;;4.30;1.70;;;;;;;31.06;25.27;97271.72;5010132;28;20419;-72
2023/07/20 10:46:12;;;;;;;1.60;1.30;;;;;;;31.00;25.17;97274.75;5009831;28;20486;-72
2023/07/20 10:49:02;;;;;;;3.13;2.03;;;;;;;30.82;25.44;97268.94;5013034;28;20470;-72
2023/07/20 10:51:28;;;;;;;4.40;1.80;;;;;;;30.44;25.50;97269.47;5010620;28;20592;-73
2023/07/20 10:53:58;;;;;;;1.67;1.50;;;;;;;30.08;25.80;97272.38;5009628;28;20928;-73
2023/07/20 10:56:26;;;;;;;1.50;1.40;;;;;;;29.94;25.86;97276.72;5010048;28;20443;-71
2023/07/20 10:58:59;;;;;;;2.17;1.30;;;;;;;30.09;25.61;97260.50;5009927;28;20515;-71
2023/07/20 11:01:28;;;;;;;5.53;1.30;;;;;;;30.36;25.33;97261.13;5009048;28;20419;-71
2023/07/20 11:03:57;;;;;;;2.80;1.60;;;;;;;30.56;24.08;97254.81;5011222;28;20430;-72
2023/07/20 11:06:25;;;;;;;4.63;1.30;;;;;;;30.73;24.71;97255.25;5011815;28;20459;-72
2023/07/20 11:09:11;;;;;;;1.90;1.20;;;;;;;31.04;24.11;97256.88;5011976;28;20435;-71
2023/07/20 11:11:38;;;;;;;2.40;1.43;;;;;;;31.21;24.24;97249.16;5007215;28;20426;-73
2023/07/20 11:14:22;;;;;;;2.43;1.40;;;;;;;31.09;24.51;97252.22;5012328;28;20423;-72
2023/07/20 11:16:51;;;;;;;1.97;1.33;;;;;;;30.97;23.49;97249.09;5004521;28;20586;-71
2023/07/20 11:19:23;;;;;;;2.17;1.20;;;;;;;31.00;23.77;97253.91;5009926;28;21040;-71
2023/07/20 11:21:53;;;;;;;2.80;1.20;;;;;;;30.87;23.79;97252.69;5011358;28;20919;-72
2023/07/20 11:24:19;;;;;;;1.60;1.50;;;;;;;30.70;24.25;97250.38;5008583;28;20431;-72
2023/07/20 11:26:49;;;;;;;8.30;1.33;;;;;;;30.80;23.87;97252.22;5010404;28;20473;-71
2023/07/20 11:29:17;;;;;;;2.40;1.40;;;;;;;30.91;24.07;97258.31;5012499;28;20611;-71
2023/07/20 11:31:43;;;;;;;1.50;1.40;;;;;;;30.97;23.79;97253.69;5009331;28;20432;-70
2023/07/20 11:34:17;;;;;;;14.10;1.47;;;;;;;30.93;23.61;97248.03;5010066;28;20427;-70